Weather at Annisse flyveplads

Public forecast

Using degrees Celsius for public forecast. Weather courtesy of forecast.io.

Closest aviation weather report (METAR) to Annisse flyveplads

Report is more than 6 hours old.

Closest report is Copenhagen Roskilde Airport, 24.1 nm (44.7 km) S.

2022/11/14 15:20 (retrieved 2 years ago)

EKRK 141520Z AUTO 12013KT 9999 OVC011/// 09/07 Q1018

Closest aviation forecast (TAF) to Annisse flyveplads

Forecast is more than 12 hours old.

Closest forecast is Copenhagen Kastrup Airport, 26.6 nm (49.2 km) SE.

2023/02/22 18:00 (retrieved 1 year ago)

TAF EKCH 221705Z 2218/2318 13015KT 9999 BKN025 TEMPO 2218/2305 14015G25KT BECMG 2305/2307 BKN012 TEMPO 2307/2318 4000 RADZ BKN005 BECMG 2316/2318 30010KT